Time;durP1;ratioP1;P1;durP2;ratioP2;P2;SDS_P1;SDS_P2;PMS_P1;PMS_P2;Temp;Humidity;BMP_temperature;BMP_pressure;BME280_temperature;BME280_humidity;BME280_pressure;Samples;Min_cycle;Max_cycle;Signal;HPM_P1;HPM_P2
2022/10/27 00:01:32;;;;;;;12.55;4.55;;;12.00;99.90;;;11.55;100.00;98027.13;5007991;28;20471;-50
2022/10/27 00:03:58;;;;;;;10.52;4.32;;;12.00;99.90;;;11.51;100.00;98029.94;4984996;28;20624;-51
2022/10/27 00:06:23;;;;;;;6.82;3.47;;;11.90;99.90;;;11.48;100.00;98030.00;4972423;28;20037;-48
2022/10/27 00:08:50;;;;;;;9.05;4.38;;;11.90;99.90;;;11.51;100.00;98040.50;4972484;28;20960;-49
2022/10/27 00:11:16;;;;;;;9.70;4.22;;;11.90;99.90;;;11.23;100.00;98007.88;4972756;28;20038;-48
2022/10/27 00:13:42;;;;;;;8.93;4.28;;;11.80;99.90;;;11.42;100.00;98033.72;4975099;28;20057;-47
2022/10/27 00:16:14;;;;;;;9.65;4.25;;;11.80;99.90;;;11.43;100.00;98038.94;4963375;28;20096;-48
2022/10/27 00:18:41;;;;;;;9.15;3.72;;;11.80;99.90;;;11.41;100.00;98045.16;4979086;28;20592;-48
2022/10/27 00:21:11;;;;;;;7.85;3.47;;;11.80;99.90;;;11.40;100.00;98044.31;4954916;28;20045;-48
2022/10/27 00:23:38;;;;;;;8.90;3.67;;;11.80;99.90;;;11.38;100.00;98050.56;4966696;28;20162;-51
2022/10/27 00:26:11;;;;;;;7.10;3.78;;;11.70;99.90;;;11.35;100.00;98054.16;4981737;28;20565;-50
2022/10/27 00:28:37;;;;;;;8.57;3.80;;;11.70;99.90;;;11.27;100.00;98037.69;4990881;28;20046;-50
2022/10/27 00:31:12;;;;;;;7.38;3.80;;;11.70;99.90;;;11.30;100.00;98053.41;4976779;28;20058;-49
2022/10/27 00:33:40;;;;;;;11.18;3.92;;;11.70;99.90;;;11.26;100.00;98050.00;4970121;28;20119;-48
2022/10/27 00:36:12;;;;;;;9.93;4.25;;;11.70;99.90;;;11.24;100.00;98054.47;4964912;28;20667;-48
2022/10/27 00:38:38;;;;;;;7.53;4.22;;;11.60;99.90;;;11.23;100.00;98060.69;4968565;28;20041;-48
2022/10/27 00:41:07;;;;;;;10.23;4.05;;;11.60;99.90;;;11.19;100.00;98055.50;4981495;28;20038;-48
2022/10/27 00:43:37;;;;;;;9.40;4.03;;;11.60;99.90;;;11.17;100.00;98060.84;4984714;28;20041;-47
2022/10/27 00:46:35;;;;;;;8.95;4.03;;;11.50;99.90;;;11.13;100.00;98061.84;4988234;28;20066;-49
2022/10/27 00:49:12;;;;;;;7.35;4.20;;;11.50;99.90;;;11.08;100.00;98061.97;4970620;28;20515;-48
2022/10/27 00:51:42;;;;;;;13.98;3.90;;;11.50;99.90;;;11.08;100.00;98066.38;4966526;28;20037;-50
2022/10/27 00:54:08;;;;;;;5.20;3.35;;;11.50;99.90;;;11.06;100.00;98060.28;4943549;28;20255;-46
2022/10/27 00:56:35;;;;;;;6.40;3.60;;;11.50;99.90;;;11.06;100.00;98063.78;4957515;28;21531;-48
2022/10/27 00:59:01;;;;;;;10.27;3.85;;;11.40;99.90;;;11.07;100.00;98059.34;4976193;28;20029;-49
2022/10/27 01:01:27;;;;;;;7.57;3.80;;;11.50;99.90;;;11.04;100.00;98062.97;4966398;28;20087;-47
2022/10/27 01:03:54;;;;;;;11.90;3.80;;;11.40;99.90;;;11.03;100.00;98055.09;4967817;28;20034;-47
2022/10/27 01:06:19;;;;;;;10.02;3.95;;;11.40;99.90;;;11.04;100.00;98056.81;4956209;28;20114;-49
2022/10/27 01:08:46;;;;;;;8.68;4.43;;;11.40;99.90;;;11.02;100.00;98062.16;4956996;28;20026;-51
2022/10/27 01:11:11;;;;;;;8.50;4.10;;;11.40;99.90;;;10.97;100.00;98057.91;4961333;28;20183;-48
2022/10/27 01:13:38;;;;;;;6.00;3.97;;;11.40;99.90;;;10.98;100.00;98062.25;4970232;28;20052;-48
2022/10/27 01:16:31;;;;;;;7.05;4.22;;;11.40;99.90;;;10.96;100.00;98054.38;4968244;28;20041;-47
2022/10/27 01:19:44;;;;;;;8.02;4.40;;;11.30;99.90;;;10.94;100.00;98055.34;4963183;28;20703;-46
2022/10/27 01:23:13;;;;;;;8.77;4.15;;;11.30;99.90;;;10.91;100.00;98055.41;4939132;28;20050;-47
2022/10/27 01:26:20;;;;;;;13.35;4.18;;;11.30;99.90;;;10.89;100.00;98039.63;4885284;28;20109;-47
2022/10/27 01:29:17;;;;;;;8.85;4.00;;;11.30;99.90;;;10.83;100.00;98039.81;4956060;28;20038;-47
2022/10/27 01:32:01;;;;;;;9.18;4.20;;;11.30;99.90;;;10.62;100.00;98017.50;4972495;28;20050;-48
2022/10/27 01:35:06;;;;;;;7.45;4.03;;;11.20;99.90;;;10.76;100.00;98054.94;4965725;28;20112;-48
2022/10/27 01:37:47;;;;;;;8.07;3.90;;;11.20;99.90;;;10.74;100.00;98053.25;4939689;28;20034;-50
2022/10/27 01:40:34;;;;;;;8.43;4.35;;;11.10;99.90;;;10.66;100.00;98050.84;4967671;28;20052;-49
2022/10/27 01:43:06;;;;;;;6.78;3.78;;;11.10;99.90;;;10.49;100.00;98028.38;4973497;28;20072;-47
2022/10/27 01:45:35;;;;;;;5.90;3.83;;;11.10;99.90;;;10.62;100.00;98052.69;4984760;28;20034;-47
2022/10/27 01:48:04;;;;;;;7.35;3.60;;;11.10;99.90;;;10.59;100.00;98050.13;4984547;28;20037;-49
2022/10/27 01:50:34;;;;;;;10.73;4.18;;;11.00;99.90;;;10.58;100.00;98052.81;4984295;28;20169;-49
2022/10/27 01:53:00;;;;;;;7.63;3.85;;;11.00;99.90;;;10.55;100.00;98056.41;4977674;28;20049;-48
2022/10/27 01:55:26;;;;;;;10.20;4.10;;;11.00;99.90;;;10.53;100.00;98052.91;4970902;28;20050;-49
2022/10/27 01:58:11;;;;;;;8.38;4.38;;;10.90;99.90;;;10.37;100.00;98031.34;4967422;28;20220;-47
2022/10/27 02:00:54;;;;;;;8.60;4.50;;;11.00;99.90;;;10.54;100.00;98038.81;4974109;28;20084;-47
2022/10/27 02:03:40;;;;;;;7.28;4.10;;;11.00;99.90;;;10.57;100.00;98038.75;4976725;28;20081;-50
2022/10/27 02:06:48;;;;;;;8.15;4.93;;;11.00;99.90;;;10.56;100.00;98033.53;4965130;28;20042;-48
2022/10/27 02:09:40;;;;;;;8.70;4.18;;;11.10;99.90;;;10.60;100.00;98037.78;4962649;28;20535;-51
2022/10/27 02:12:20;;;;;;;10.45;4.18;;;11.00;99.90;;;10.57;100.00;98035.22;4940574;28;20058;-49
2022/10/27 02:14:50;;;;;;;9.07;4.20;;;11.00;99.90;;;10.54;100.00;98041.47;4974320;28;20227;-48
2022/10/27 02:17:18;;;;;;;7.97;4.10;;;11.00;99.90;;;10.46;100.00;98017.94;4971669;28;20060;-50
2022/10/27 02:19:47;;;;;;;10.95;4.40;;;10.90;99.90;;;10.48;100.00;98033.69;4969286;28;20121;-46
2022/10/27 02:22:13;;;;;;;12.55;4.18;;;10.90;99.90;;;10.44;100.00;98040.81;4964371;28;20053;-49
2022/10/27 02:24:39;;;;;;;11.10;4.50;;;10.90;99.90;;;10.43;100.00;98038.25;4970045;28;20491;-48
2022/10/27 02:27:16;;;;;;;8.63;3.90;;;10.90;99.90;;;10.39;100.00;98048.03;4964039;28;20065;-47
2022/10/27 02:29:47;;;;;;;8.43;4.18;;;10.80;99.90;;;10.36;100.00;98049.88;4978092;28;20038;-49
2022/10/27 02:32:18;;;;;;;13.68;3.97;;;10.80;99.90;;;10.37;100.00;98046.31;4968778;28;20092;-50
2022/10/27 02:34:46;;;;;;;11.77;3.80;;;10.80;99.90;;;10.33;100.00;98045.53;4968738;28;20414;-51
2022/10/27 02:37:20;;;;;;;5.93;3.40;;;10.80;99.90;;;10.00;100.00;97994.50;4981455;28;20113;-46
2022/10/27 02:39:46;;;;;;;9.73;4.20;;;10.70;99.90;;;10.23;100.00;98036.97;4967663;28;20058;-51
2022/10/27 02:42:11;;;;;;;6.43;3.58;;;10.70;99.90;;;10.23;100.00;98041.34;4970787;28;20478;-49
2022/10/27 02:44:37;;;;;;;8.88;3.90;;;10.70;99.90;;;10.19;100.00;98039.69;4967546;28;20038;-48
2022/10/27 02:47:03;;;;;;;9.93;4.00;;;10.60;99.90;;;10.17;100.00;98038.88;4983525;28;20060;-47
2022/10/27 02:49:28;;;;;;;7.60;3.72;;;10.70;99.90;;;10.02;100.00;98013.78;4966525;28;20113;-50
2022/10/27 02:51:54;;;;;;;9.73;3.97;;;10.60;99.90;;;10.14;100.00;98037.19;4968128;28;20035;-48
2022/10/27 02:54:20;;;;;;;7.47;3.88;;;10.60;99.90;;;10.13;100.00;98041.59;4970643;28;20442;-50
2022/10/27 02:56:45;;;;;;;10.32;4.25;;;10.60;99.90;;;10.12;100.00;98036.34;4965418;28;20038;-46
2022/10/27 02:59:11;;;;;;;7.30;4.03;;;10.60;99.90;;;10.09;100.00;98037.31;4969564;28;20084;-50
2022/10/27 03:01:37;;;;;;;10.20;4.00;;;10.60;99.90;;;10.07;100.00;98047.00;4978453;28;20096;-47
2022/10/27 03:04:02;;;;;;;9.57;4.05;;;10.50;99.90;;;10.03;100.00;98039.22;4975430;28;20442;-47
2022/10/27 03:06:28;;;;;;;8.43;4.15;;;10.50;99.90;;;10.02;100.00;98043.63;4977872;28;20164;-48
2022/10/27 03:08:54;;;;;;;6.82;3.83;;;10.50;99.90;;;9.99;100.00;98043.69;4971944;28;20395;-48
2022/10/27 03:11:19;;;;;;;6.95;3.63;;;10.50;99.90;;;9.96;100.00;98037.63;4975459;28;20033;-51
2022/10/27 03:13:45;;;;;;;11.45;4.78;;;10.40;99.90;;;9.94;100.00;98042.94;4979049;28;20512;-48
2022/10/27 03:16:11;;;;;;;8.77;4.70;;;10.40;99.90;;;9.92;100.00;98039.47;4974306;28;20033;-50
2022/10/27 03:18:36;;;;;;;13.30;4.82;;;10.40;99.90;;;9.92;100.00;98040.34;4980898;28;20022;-48
2022/10/27 03:21:02;;;;;;;8.68;4.80;;;10.40;99.90;;;9.94;100.00;98040.28;4974683;28;20044;-49
2022/10/27 03:23:28;;;;;;;10.20;4.80;;;10.40;99.90;;;9.97;100.00;98032.31;4971257;28;20695;-50
2022/10/27 03:25:53;;;;;;;8.02;4.70;;;10.40;99.90;;;10.01;100.00;98041.88;4971581;28;20953;-49
2022/10/27 03:28:19;;;;;;;10.20;4.53;;;10.50;99.90;;;10.01;100.00;98033.13;4973079;28;20221;-49
2022/10/27 03:30:45;;;;;;;8.55;4.50;;;10.40;99.90;;;10.01;100.00;98031.34;4970947;28;20570;-48
2022/10/27 03:33:10;;;;;;;8.00;4.47;;;10.50;99.90;;;10.02;100.00;98034.84;4980773;28;20041;-48
2022/10/27 03:35:36;;;;;;;8.98;4.82;;;10.40;99.90;;;9.96;100.00;98035.00;4971545;28;20219;-52
2022/10/27 03:38:02;;;;;;;8.43;5.00;;;10.40;99.90;;;9.97;100.00;98034.09;4971302;28;20620;-48
2022/10/27 03:40:28;;;;;;;10.95;4.53;;;10.40;99.90;;;9.97;100.00;98034.09;4974149;28;20037;-47
2022/10/27 03:42:57;;;;;;;10.10;4.75;;;10.40;99.90;;;9.97;100.00;98036.75;4980582;28;20060;-47
2022/10/27 03:45:25;;;;;;;7.32;4.43;;;10.40;99.90;;;9.96;100.00;98045.53;4970565;28;20099;-49
2022/10/27 03:48:05;;;;;;;8.40;4.70;;;10.40;99.90;;;9.94;100.00;98040.28;4982658;28;20038;-48
2022/10/27 03:50:32;;;;;;;8.00;4.30;;;10.40;99.90;;;9.92;100.00;98037.72;4993763;28;20055;-48
2022/10/27 03:52:57;;;;;;;9.52;4.78;;;10.40;99.90;;;9.93;100.00;98038.59;4980850;28;20030;-50
2022/10/27 03:55:24;;;;;;;8.45;4.45;;;10.40;99.90;;;9.91;100.00;98027.22;4975675;28;20626;-47
2022/10/27 03:57:49;;;;;;;14.48;5.22;;;10.40;99.90;;;9.89;100.00;98035.16;4984781;28;20044;-47
2022/10/27 04:00:17;;;;;;;9.30;4.90;;;10.40;99.90;;;9.92;100.00;98031.56;4981796;28;20534;-48
2022/10/27 04:02:42;;;;;;;9.85;5.20;;;10.40;99.90;;;9.84;100.00;98017.72;5001243;28;20038;-48
2022/10/27 04:05:08;;;;;;;6.63;4.03;;;10.40;99.90;;;9.71;100.00;97998.72;4979967;28;20041;-46
2022/10/27 04:07:34;;;;;;;8.60;4.68;;;10.40;99.90;;;9.85;100.00;98032.63;4986927;28;20462;-46
2022/10/27 04:10:00;;;;;;;13.05;5.55;;;10.40;99.90;;;9.75;100.00;98029.34;4990583;28;23009;-47
2022/10/27 04:12:26;;;;;;;7.18;4.50;;;10.30;99.90;;;9.79;100.00;98033.63;4982985;28;20032;-51
2022/10/27 04:14:51;;;;;;;7.97;4.43;;;10.30;99.90;;;9.62;100.00;98017.34;4986859;28;20109;-47
2022/10/27 04:17:18;;;;;;;7.50;4.32;;;10.30;99.90;;;9.76;100.00;98046.88;4985974;28;20165;-49
2022/10/27 04:19:44;;;;;;;7.32;4.53;;;10.20;99.90;;;9.77;100.00;98047.75;4991182;28;20025;-48
2022/10/27 04:22:09;;;;;;;6.57;3.95;;;10.20;99.90;;;9.75;100.00;98046.00;4992682;28;20022;-48
2022/10/27 04:24:39;;;;;;;12.07;4.50;;;10.20;99.90;;;9.77;100.00;98050.38;4993450;28;20029;-48
2022/10/27 04:27:05;;;;;;;7.32;5.00;;;10.20;99.90;;;9.79;100.00;98051.22;4988134;28;20053;-47
2022/10/27 04:29:31;;;;;;;10.30;4.85;;;10.20;99.90;;;9.83;100.00;98051.09;4989971;28;20037;-48
2022/10/27 04:31:57;;;;;;;9.30;4.88;;;10.30;99.90;;;9.82;100.00;98041.47;4987800;28;20113;-47
2022/10/27 04:34:22;;;;;;;8.13;4.95;;;10.30;99.90;;;9.84;100.00;98044.06;4985547;28;20129;-47
2022/10/27 04:36:48;;;;;;;9.77;4.68;;;10.30;99.90;;;9.82;100.00;98040.63;4978444;28;20040;-47
2022/10/27 04:39:14;;;;;;;8.18;4.85;;;10.30;99.90;;;9.82;100.00;98040.63;4981444;28;20364;-47
2022/10/27 04:41:40;;;;;;;8.98;4.82;;;10.30;99.90;;;9.65;100.00;98018.16;4985299;28;20030;-47
2022/10/27 04:44:06;;;;;;;9.27;5.00;;;10.30;99.90;;;9.81;100.00;98054.69;4989938;28;20554;-50
2022/10/27 04:46:32;;;;;;;9.30;5.03;;;10.30;99.90;;;9.81;100.00;98058.16;4979384;28;20032;-48
2022/10/27 04:48:57;;;;;;;11.63;5.63;;;10.30;99.90;;;9.65;100.00;98025.19;4978611;28;20840;-49
2022/10/27 04:51:23;;;;;;;15.05;5.45;;;10.30;99.90;;;9.79;100.00;98056.47;4991555;28;20037;-52
2022/10/27 04:53:49;;;;;;;12.82;5.63;;;10.30;99.90;;;9.78;100.00;98053.00;4987703;28;20113;-48
2022/10/27 04:56:16;;;;;;;11.82;5.95;;;10.30;99.90;;;9.76;100.00;98057.41;4986753;28;20112;-50
2022/10/27 04:58:41;;;;;;;13.50;5.82;;;10.30;99.90;;;9.79;100.00;98053.84;4990022;28;20480;-47
2022/10/27 05:01:12;;;;;;;10.63;5.30;;;10.30;99.90;;;9.79;100.00;98056.47;4987317;28;20026;-50
2022/10/27 05:03:38;;;;;;;8.25;4.68;;;10.30;99.90;;;9.74;100.00;98040.78;4988067;28;20030;-49
2022/10/27 05:06:04;;;;;;;8.48;5.38;;;10.30;99.90;;;9.77;100.00;98051.25;4986882;28;20350;-47
2022/10/27 05:08:30;;;;;;;11.93;5.13;;;10.30;99.90;;;9.77;100.00;98053.88;4984306;28;20038;-48
2022/10/27 05:10:56;;;;;;;9.30;5.13;;;10.30;99.90;;;9.76;100.00;98054.78;4985665;28;20495;-46
2022/10/27 05:13:22;;;;;;;14.85;5.10;;;10.20;99.90;;;9.58;100.00;98027.09;4984610;28;20076;-46
2022/10/27 05:15:48;;;;;;;7.75;5.22;;;10.20;99.90;;;9.71;100.00;98044.34;4984739;28;20061;-48
2022/10/27 05:18:14;;;;;;;11.43;5.28;;;10.20;99.90;;;9.70;100.00;98047.03;4985942;28;20113;-48
2022/10/27 05:20:39;;;;;;;8.10;4.85;;;10.20;99.90;;;9.69;100.00;98043.53;4973408;28;20033;-50
2022/10/27 05:23:05;;;;;;;12.05;5.22;;;10.20;99.90;;;9.52;100.00;98019.34;4973996;28;20652;-47
2022/10/27 05:25:31;;;;;;;8.32;4.97;;;10.10;99.90;;;9.65;100.00;98044.47;4971430;28;20033;-48
2022/10/27 05:28:06;;;;;;;9.18;4.85;;;10.10;99.90;;;9.64;100.00;98048.03;4964183;28;20129;-48
2022/10/27 05:30:32;;;;;;;10.65;5.00;;;10.10;99.90;;;9.64;100.00;98050.66;4973997;28;20036;-47
2022/10/27 05:32:58;;;;;;;14.57;5.93;;;10.10;99.90;;;9.67;100.00;98057.63;4967952;28;20049;-48
2022/10/27 05:35:23;;;;;;;10.23;5.80;;;10.10;99.90;;;9.70;100.00;98047.88;4958213;28;20104;-48
2022/10/27 05:37:49;;;;;;;12.70;5.43;;;10.20;99.90;;;9.73;100.00;98034.66;4965269;28;20413;-48
2022/10/27 05:40:15;;;;;;;8.43;5.65;;;10.20;99.90;;;9.71;100.00;98033.81;4964937;28;20046;-50
2022/10/27 05:42:50;;;;;;;14.70;6.45;;;10.20;99.90;;;9.74;100.00;98033.75;4961838;28;20208;-48
2022/10/27 05:45:16;;;;;;;8.98;5.47;;;10.20;99.90;;;9.74;100.00;98040.78;4976703;28;20515;-50
2022/10/27 05:47:42;;;;;;;8.88;5.18;;;10.20;99.90;;;9.73;100.00;98039.06;4987110;28;20124;-46
2022/10/27 05:50:08;;;;;;;13.35;5.82;;;10.20;99.90;;;9.69;100.00;98038.25;4985056;28;20041;-48
2022/10/27 05:52:34;;;;;;;10.10;5.63;;;10.20;99.90;;;9.63;100.00;98019.09;4986037;28;20033;-50
2022/10/27 05:54:59;;;;;;;12.70;5.47;;;10.20;99.90;;;9.64;100.00;98026.97;4994641;23;20089;-49
2022/10/27 05:57:25;;;;;;;11.13;5.22;;;10.10;99.90;;;9.60;100.00;98020.03;4959606;28;20215;-50
2022/10/27 05:59:51;;;;;;;7.30;4.72;;;10.10;99.90;;;9.60;100.00;98021.78;4947032;28;20030;-47
2022/10/27 06:02:17;;;;;;;8.55;5.55;;;10.10;99.90;;;9.59;100.00;98015.66;4945839;28;20133;-47
2022/10/27 06:04:42;;;;;;;14.02;6.15;;;10.10;99.90;;;9.64;100.00;98020.84;4940118;28;21015;-47
2022/10/27 06:07:08;;;;;;;12.98;6.00;;;10.10;99.90;;;9.63;100.00;98014.69;4909963;28;20031;-48
2022/10/27 06:09:34;;;;;;;15.88;6.43;;;10.20;99.90;;;9.66;100.00;98017.25;4907906;28;20126;-45
2022/10/27 06:11:59;;;;;;;12.55;5.82;;;10.10;99.90;;;9.71;100.00;98022.44;4923419;28;21325;-49
2022/10/27 06:14:25;;;;;;;12.95;6.50;;;10.20;99.90;;;9.72;100.00;98027.63;4924385;28;20031;-46
2022/10/27 06:16:51;;;;;;;9.90;6.32;;;10.20;99.90;;;9.75;100.00;98034.63;4938095;28;20026;-47
2022/10/27 06:19:16;;;;;;;9.00;5.78;;;10.20;99.90;;;9.77;100.00;98037.22;4936348;28;20038;-48
2022/10/27 06:21:42;;;;;;;15.00;6.78;;;10.20;99.90;;;9.80;100.00;98042.38;4930187;28;21056;-48
2022/10/27 06:24:08;;;;;;;9.35;6.50;;;10.30;99.90;;;9.79;100.00;98031.00;4929225;28;20026;-48
2022/10/27 06:26:34;;;;;;;15.75;6.95;;;10.30;99.90;;;9.81;100.00;98033.59;4944321;28;20618;-47
2022/10/27 06:29:00;;;;;;;15.20;6.93;;;10.30;99.90;;;9.88;100.00;98045.72;4954152;28;20251;-47
2022/10/27 06:31:27;;;;;;;13.32;7.40;;;10.40;99.90;;;9.87;100.00;98039.59;4925067;28;20098;-51
2022/10/27 06:33:53;;;;;;;13.18;7.13;;;10.40;99.90;;;10.02;100.00;98048.03;4933307;28;20034;-46
2022/10/27 06:36:19;;;;;;;12.07;7.15;;;10.50;99.90;;;10.06;100.00;98047.91;4934270;28;20035;-48
2022/10/27 06:38:44;;;;;;;17.83;8.10;;;10.50;99.90;;;10.13;100.00;98051.25;4939415;28;20038;-48
2022/10/27 06:41:10;;;;;;;12.57;7.85;;;10.60;99.90;;;10.07;100.00;98036.47;4934640;28;20027;-48
2022/10/27 06:43:36;;;;;;;12.68;7.40;;;10.70;99.90;;;10.25;100.00;98058.88;4933468;28;20041;-50
2022/10/27 06:46:01;;;;;;;15.77;7.25;;;10.70;99.90;;;10.29;100.00;98060.50;4934334;28;20615;-47
2022/10/27 06:48:27;;;;;;;10.93;6.90;;;10.70;99.90;;;10.34;100.00;98073.63;4937467;28;20064;-47
2022/10/27 06:50:53;;;;;;;10.45;6.60;;;10.80;99.90;;;10.37;100.00;98070.91;4916206;28;20102;-52
2022/10/27 06:53:18;;;;;;;15.00;6.82;;;10.90;99.90;;;10.39;100.00;98076.13;4918255;28;20022;-48
2022/10/27 06:55:44;;;;;;;12.88;7.32;;;10.90;99.90;;;10.40;100.00;98072.59;4929516;28;20493;-48
2022/10/27 06:58:10;;;;;;;10.68;6.47;;;10.90;99.90;;;10.45;100.00;98073.34;4934540;28;20043;-50
2022/10/27 07:00:36;;;;;;;9.55;6.60;;;10.90;99.90;;;10.46;100.00;98073.31;4929669;28;20488;-47
2022/10/27 07:03:08;;;;;;;13.93;7.05;;;10.90;99.90;;;10.57;100.00;98077.44;4917910;28;20290;-47
2022/10/27 07:05:34;;;;;;;15.38;7.25;;;11.00;99.90;;;10.58;100.00;98063.34;4946080;28;20035;-49
2022/10/27 07:08:00;;;;;;;13.15;7.07;;;11.10;99.90;;;10.61;100.00;98064.13;4958733;28;20047;-47
2022/10/27 07:10:26;;;;;;;12.60;7.38;;;11.10;99.90;;;10.69;100.00;98069.19;4955901;28;20042;-47
2022/10/27 07:12:54;;;;;;;13.80;7.25;;;11.10;99.90;;;10.74;100.00;98069.94;4953359;28;20022;-48
2022/10/27 07:15:21;;;;;;;12.82;7.70;;;11.20;99.90;;;10.79;100.00;98064.56;4948705;28;20468;-47
2022/10/27 07:17:46;;;;;;;13.00;7.40;;;11.30;99.90;;;10.82;100.00;98067.97;4957677;28;20113;-49
2022/10/27 07:20:12;;;;;;;15.00;7.35;;;11.30;99.90;;;10.87;100.00;98065.19;4965980;28;20035;-47
2022/10/27 07:22:40;;;;;;;13.70;7.57;;;11.30;99.90;;;10.94;100.00;98068.53;4964213;28;20118;-47
2022/10/27 07:25:07;;;;;;;10.13;6.78;;;11.40;99.90;;;11.00;100.00;98071.00;4967320;28;20054;-50
2022/10/27 07:27:33;;;;;;;12.82;7.13;;;11.50;99.90;;;11.05;100.00;98083.19;4969076;28;20034;-50
2022/10/27 07:29:59;;;;;;;10.18;6.28;;;11.50;99.90;;;11.11;100.00;98079.50;4964504;28;20389;-47
2022/10/27 07:32:24;;;;;;;11.85;6.80;;;11.60;99.90;;;11.15;100.00;98081.13;4964363;28;20038;-47
2022/10/27 07:34:50;;;;;;;14.07;7.20;;;11.60;99.90;;;11.21;100.00;98082.72;4961965;28;20039;-56
2022/10/27 07:37:16;;;;;;;12.95;6.13;;;11.60;99.90;;;11.17;100.00;98063.47;4964673;28;20023;-57
2022/10/27 07:39:41;;;;;;;11.23;6.38;;;11.70;99.90;;;11.30;100.00;98074.53;4961384;28;20034;-57
2022/10/27 07:42:07;;;;;;;10.98;6.20;;;11.70;99.90;;;11.37;100.00;98078.72;4964711;28;20038;-57
2022/10/27 07:44:33;;;;;;;15.27;7.10;;;11.90;99.90;;;11.43;100.00;98083.84;4961705;28;20062;-57
2022/10/27 07:46:58;;;;;;;10.07;6.15;;;11.90;99.90;;;11.46;100.00;98080.25;4964464;28;20513;-57
2022/10/27 07:49:24;;;;;;;12.77;6.97;;;11.90;99.90;;;11.55;100.00;98079.09;4949221;28;20043;-57
2022/10/27 07:51:50;;;;;;;12.43;6.88;;;12.00;99.90;;;11.62;100.00;98086.78;4967170;28;20522;-57
2022/10/27 07:54:15;;;;;;;8.13;5.90;;;12.10;99.90;;;11.69;100.00;98079.56;4952642;28;20030;-55
2022/10/27 07:56:41;;;;;;;9.93;6.40;;;12.10;99.90;;;11.75;100.00;98087.28;4969442;28;20034;-56
2022/10/27 07:59:07;;;;;;;8.80;6.32;;;12.20;99.90;;;11.82;100.00;98094.09;4952197;28;20127;-56
2022/10/27 08:01:32;;;;;;;10.63;6.07;;;12.30;99.90;;;11.88;100.00;98093.06;4964609;28;20551;-56
2022/10/27 08:03:58;;;;;;;14.88;6.72;;;12.30;99.90;;;11.94;100.00;98092.06;4970208;28;20038;-56
2022/10/27 08:06:24;;;;;;;10.32;6.55;;;12.40;99.90;;;11.98;100.00;98101.59;4965716;28;20396;-56
2022/10/27 08:08:50;;;;;;;10.77;6.43;;;12.40;99.90;;;12.04;100.00;98101.41;4971108;28;20034;-55
2022/10/27 08:11:15;;;;;;;16.05;7.22;;;12.50;99.90;;;12.08;100.00;98107.44;4970196;28;20053;-56
2022/10/27 08:13:41;;;;;;;10.02;6.25;;;12.50;99.90;;;12.13;100.00;98117.00;4968495;28;20030;-56
2022/10/27 08:16:07;;;;;;;8.82;5.97;;;12.60;99.90;;;12.19;100.00;98110.66;4964970;28;20555;-56
2022/10/27 08:18:32;;;;;;;9.93;5.47;;;12.60;99.90;;;12.23;100.00;98118.41;4970371;28;20022;-56
2022/10/27 08:20:58;;;;;;;10.50;5.82;;;12.70;99.90;;;12.31;100.00;98122.59;4964500;28;20499;-56
2022/10/27 08:23:24;;;;;;;11.88;5.93;;;12.80;99.90;;;12.34;100.00;98120.72;4970442;28;20085;-56
2022/10/27 08:25:51;;;;;;;9.65;6.32;;;12.80;99.90;;;12.37;100.00;98125.06;4968141;28;20480;-55
2022/10/27 08:28:17;;;;;;;9.02;5.97;;;12.90;99.90;;;12.43;100.00;98116.91;4972867;28;20049;-56
2022/10/27 08:30:43;;;;;;;8.52;5.70;;;12.90;99.90;;;12.47;100.00;98115.03;4968116;28;20039;-56
2022/10/27 08:33:09;;;;;;;10.23;6.30;;;12.90;99.90;;;12.53;100.00;98117.47;4964992;28;20026;-56
2022/10/27 08:35:35;;;;;;;16.63;6.32;;;13.00;99.90;;;12.62;100.00;98121.59;4967558;28;20028;-56
2022/10/27 08:38:15;;;;;;;10.90;5.90;;;13.10;99.90;;;12.64;100.00;98110.03;4963079;28;20043;-57
2022/10/27 08:41:01;;;;;;;12.07;6.65;;;13.10;99.90;;;12.73;100.00;98122.09;4969724;28;20370;-57
2022/10/27 08:43:51;;;;;;;11.23;5.80;;;13.10;99.90;;;12.81;100.00;98117.38;4953760;28;20045;-57
2022/10/27 08:46:46;;;;;;;13.45;6.40;;;13.20;99.90;;;12.86;100.00;98115.44;4961267;28;20041;-57
2022/10/27 08:49:36;;;;;;;9.60;6.25;;;13.30;99.90;;;12.95;100.00;98109.81;4949891;28;20041;-57
2022/10/27 08:52:36;;;;;;;11.55;5.68;;;13.40;99.90;;;13.05;100.00;98118.31;4965461;28;20049;-57
2022/10/27 08:55:29;;;;;;;8.38;4.90;;;13.50;99.90;;;13.14;100.00;98115.34;4948236;28;20440;-56
2022/10/27 08:58:27;;;;;;;12.10;5.20;;;13.60;99.90;;;13.24;100.00;98120.31;4967816;28;20041;-57
2022/10/27 09:01:09;;;;;;;7.55;4.90;;;13.70;99.90;;;13.32;100.00;98119.16;4964658;28;20122;-56
2022/10/27 09:04:03;;;;;;;6.63;4.78;;;13.80;99.90;;;13.42;100.00;98113.50;4965010;28;20062;-56
2022/10/27 09:06:40;;;;;;;11.77;4.75;;;13.90;99.90;;;13.53;100.00;98121.91;4949182;28;20046;-56
2022/10/27 09:09:48;;;;;;;8.38;4.60;;;14.00;99.90;;;13.64;100.00;98121.50;4949076;28;20129;-56
2022/10/27 09:12:29;;;;;;;6.88;4.07;;;14.10;99.90;;;13.76;100.00;98121.03;4951545;28;20153;-56
2022/10/27 09:15:22;;;;;;;9.00;4.95;;;14.20;99.90;;;13.87;100.00;98123.28;4965339;28;20026;-56
2022/10/27 09:18:09;;;;;;;8.70;4.55;;;14.30;99.90;;;14.01;100.00;98114.78;4964550;28;20039;-56
2022/10/27 09:20:45;;;;;;;11.00;3.95;;;14.50;99.90;;;14.14;100.00;98113.41;4953301;28;20041;-56
2022/10/27 09:23:16;;;;;;;8.27;3.88;;;14.60;99.90;;;14.27;100.00;98113.78;4967207;28;20101;-56
2022/10/27 09:25:44;;;;;;;8.55;3.60;;;14.80;99.90;;;14.44;100.00;98111.25;4964427;28;20026;-56
2022/10/27 09:28:20;;;;;;;7.07;3.70;;;14.90;99.90;;;14.55;100.00;98113.47;4950013;28;20472;-56
2022/10/27 09:30:49;;;;;;;6.63;3.13;;;15.00;99.90;;;14.64;100.00;98117.56;4951158;28;20226;-56
2022/10/27 09:33:20;;;;;;;8.20;4.05;;;15.10;99.90;;;14.74;100.00;98120.72;4948886;28;20278;-57
2022/10/27 09:35:46;;;;;;;12.32;3.95;;;15.20;99.90;;;14.82;100.00;98119.47;4947132;28;23251;-56
2022/10/27 09:38:22;;;;;;;7.72;3.67;;;15.30;99.90;;;14.95;100.00;98116.25;4946801;28;20031;-55
2022/10/27 09:40:51;;;;;;;6.15;3.10;;;15.40;99.90;;;15.10;100.00;98120.06;4947213;28;20538;-55
2022/10/27 09:43:20;;;;;;;11.57;3.63;;;15.50;99.90;;;15.19;100.00;98119.66;4953017;28;20052;-56
2022/10/27 09:45:54;;;;;;;6.75;3.38;;;15.60;99.90;;;15.23;100.00;98114.13;4948244;28;20042;-56
2022/10/27 09:48:23;;;;;;;10.38;3.22;;;15.70;99.90;;;15.33;100.00;98122.56;4942086;28;20425;-56
2022/10/27 09:50:59;;;;;;;10.80;3.22;;;15.70;99.90;;;15.47;100.00;98111.31;4946491;28;20085;-57
2022/10/27 09:53:46;;;;;;;6.60;3.17;;;15.90;99.90;;;15.60;100.00;98114.28;4959250;28;20564;-57
2022/10/27 09:56:37;;;;;;;13.88;3.00;;;16.00;99.90;;;15.72;100.00;98112.84;4964371;28;20034;-56
2022/10/27 09:59:06;;;;;;;9.50;3.35;;;16.10;99.90;;;15.80;100.00;98110.72;4946727;28;20330;-57
2022/10/27 10:01:55;;;;;;;6.25;2.97;;;16.20;99.90;;;15.90;100.00;98112.03;4949840;28;21018;-57
2022/10/27 10:04:36;;;;;;;8.20;3.33;;;16.30;99.90;;;15.99;100.00;98114.25;4948623;28;20532;-56
2022/10/27 10:07:05;;;;;;;8.73;3.00;;;16.40;99.90;;;16.04;100.00;98114.00;4950950;28;20031;-57
2022/10/27 10:09:33;;;;;;;6.85;3.00;;;16.40;99.90;;;16.12;100.00;98113.66;4963784;28;20031;-56
2022/10/27 10:12:23;;;;;;;5.63;2.63;;;16.50;99.90;;;16.20;100.00;98119.47;4964640;28;20053;-57
2022/10/27 10:14:49;;;;;;;19.85;3.55;;;16.50;99.90;;;16.24;100.00;98118.41;4961826;28;20034;-57
2022/10/27 10:17:26;;;;;;;7.13;3.33;;;16.60;99.90;;;16.28;100.00;98113.78;4947524;28;20023;-57
2022/10/27 10:19:55;;;;;;;6.60;2.72;;;16.60;99.90;;;16.34;100.00;98121.47;4964654;28;20034;-55
2022/10/27 10:22:28;;;;;;;4.85;2.50;;;16.70;99.90;;;16.42;100.00;98113.97;4961778;28;20523;-57
2022/10/27 10:24:56;;;;;;;7.43;2.65;;;16.80;99.90;;;16.42;100.00;98108.66;4948261;28;20043;-57
2022/10/27 10:27:30;;;;;;;6.05;2.70;;;16.80;99.90;;;16.52;100.00;98109.03;4967176;28;20469;-56